Terminal Aerodrome Forecast
Issued by NWS

Home | Current Version | Previous Version | Text Only | Print | Product List | Glossary On
Versions: 1 2 3 4 5 6 7 8 9 10 11 12 13
000
FTUS45 KRIW 241122
TAFWRL
TAF
KWRL 241122Z 2412/2512 15007KT P6SM SKC
     FM242000 24017G27KT P6SM SCT080
     FM250000 30016KT P6SM SCT080
     FM250300 33012KT P6SM SCT090
     FM250600 31009KT P6SM SCT090=

USA.gov is the U.S. government's official web portal to all federal, state and local government web resources and services.